sensor_id;sensor_type;location;lat;lon;timestamp;P1;durP1;ratioP1;P2;durP2;ratioP2
10596;SDS011;5346;48.766;8.674;2023-11-19T00:00:55;0.07;;;0.07;;
10596;SDS011;5346;48.766;8.674;2023-11-19T00:03:46;0.50;;;0.10;;
10596;SDS011;5346;48.766;8.674;2023-11-19T00:06:17;0.20;;;0.20;;
10596;SDS011;5346;48.766;8.674;2023-11-19T00:08:51;1.03;;;0.20;;
10596;SDS011;5346;48.766;8.674;2023-11-19T00:11:25;0.10;;;0.10;;
10596;SDS011;5346;48.766;8.674;2023-11-19T00:13:59;0.20;;;0.20;;
10596;SDS011;5346;48.766;8.674;2023-11-19T00:16:34;0.87;;;0.13;;
10596;SDS011;5346;48.766;8.674;2023-11-19T00:19:07;0.00;;;0.00;;
10596;SDS011;5346;48.766;8.674;2023-11-19T00:21:35;3.20;;;0.10;;
10596;SDS011;5346;48.766;8.674;2023-11-19T00:24:03;0.47;;;0.03;;
10596;SDS011;5346;48.766;8.674;2023-11-19T00:26:37;0.13;;;0.13;;
10596;SDS011;5346;48.766;8.674;2023-11-19T00:29:11;0.00;;;0.00;;
10596;SDS011;5346;48.766;8.674;2023-11-19T00:31:40;0.30;;;0.00;;
10596;SDS011;5346;48.766;8.674;2023-11-19T00:34:14;0.93;;;0.10;;
10596;SDS011;5346;48.766;8.674;2023-11-19T00:36:49;0.00;;;0.00;;
10596;SDS011;5346;48.766;8.674;2023-11-19T00:39:17;0.10;;;0.00;;
10596;SDS011;5346;48.766;8.674;2023-11-19T00:41:52;0.10;;;0.05;;
10596;SDS011;5346;48.766;8.674;2023-11-19T00:44:20;0.00;;;0.00;;
10596;SDS011;5346;48.766;8.674;2023-11-19T00:46:48;0.17;;;0.00;;
10596;SDS011;5346;48.766;8.674;2023-11-19T00:49:29;0.30;;;0.20;;
10596;SDS011;5346;48.766;8.674;2023-11-19T00:51:59;0.83;;;0.00;;
10596;SDS011;5346;48.766;8.674;2023-11-19T00:54:33;0.00;;;0.00;;
10596;SDS011;5346;48.766;8.674;2023-11-19T00:57:07;0.10;;;0.10;;
10596;SDS011;5346;48.766;8.674;2023-11-19T00:59:35;0.00;;;0.00;;
10596;SDS011;5346;48.766;8.674;2023-11-19T01:02:16;0.30;;;0.00;;
10596;SDS011;5346;48.766;8.674;2023-11-19T01:04:50;0.03;;;0.00;;
10596;SDS011;5346;48.766;8.674;2023-11-19T01:07:25;0.00;;;0.00;;
10596;SDS011;5346;48.766;8.674;2023-11-19T01:09:53;0.10;;;0.00;;
10596;SDS011;5346;48.766;8.674;2023-11-19T01:12:28;0.67;;;0.00;;
10596;SDS011;5346;48.766;8.674;2023-11-19T01:14:57;0.00;;;0.00;;
10596;SDS011;5346;48.766;8.674;2023-11-19T01:17:32;0.10;;;0.10;;
10596;SDS011;5346;48.766;8.674;2023-11-19T01:20:16;0.10;;;0.10;;
10596;SDS011;5346;48.766;8.674;2023-11-19T01:22:51;0.00;;;0.00;;
10596;SDS011;5346;48.766;8.674;2023-11-19T01:25:27;1.13;;;0.07;;
10596;SDS011;5346;48.766;8.674;2023-11-19T01:27:55;0.20;;;0.10;;
10596;SDS011;5346;48.766;8.674;2023-11-19T01:30:32;0.10;;;0.00;;
10596;SDS011;5346;48.766;8.674;2023-11-19T01:33:00;0.00;;;0.00;;
10596;SDS011;5346;48.766;8.674;2023-11-19T01:35:34;0.00;;;0.00;;
10596;SDS011;5346;48.766;8.674;2023-11-19T01:38:02;4.63;;;0.20;;
10596;SDS011;5346;48.766;8.674;2023-11-19T01:40:29;4.13;;;0.10;;
10596;SDS011;5346;48.766;8.674;2023-11-19T01:43:03;0.63;;;0.00;;
10596;SDS011;5346;48.766;8.674;2023-11-19T01:45:40;0.00;;;0.00;;
10596;SDS011;5346;48.766;8.674;2023-11-19T01:48:16;0.00;;;0.00;;
10596;SDS011;5346;48.766;8.674;2023-11-19T01:50:45;0.00;;;0.00;;
10596;SDS011;5346;48.766;8.674;2023-11-19T01:53:28;0.47;;;0.00;;
10596;SDS011;5346;48.766;8.674;2023-11-19T01:55:57;0.83;;;0.10;;
10596;SDS011;5346;48.766;8.674;2023-11-19T01:58:33;0.20;;;0.10;;
10596;SDS011;5346;48.766;8.674;2023-11-19T02:01:15;0.00;;;0.00;;
10596;SDS011;5346;48.766;8.674;2023-11-19T02:03:56;2.75;;;0.10;;
10596;SDS011;5346;48.766;8.674;2023-11-19T02:06:32;1.80;;;0.10;;
10596;SDS011;5346;48.766;8.674;2023-11-19T02:09:01;0.00;;;0.00;;
10596;SDS011;5346;48.766;8.674;2023-11-19T02:11:42;0.10;;;0.10;;
10596;SDS011;5346;48.766;8.674;2023-11-19T02:14:11;1.95;;;0.20;;
10596;SDS011;5346;48.766;8.674;2023-11-19T02:16:45;0.65;;;0.10;;
10596;SDS011;5346;48.766;8.674;2023-11-19T02:19:13;0.10;;;0.00;;
10596;SDS011;5346;48.766;8.674;2023-11-19T02:21:47;0.20;;;0.20;;
10596;SDS011;5346;48.766;8.674;2023-11-19T02:24:22;0.20;;;0.20;;
10596;SDS011;5346;48.766;8.674;2023-11-19T02:27:08;0.00;;;0.00;;
10596;SDS011;5346;48.766;8.674;2023-11-19T02:29:48;3.88;;;0.28;;
10596;SDS011;5346;48.766;8.674;2023-11-19T02:32:22;0.00;;;0.00;;
10596;SDS011;5346;48.766;8.674;2023-11-19T02:34:50;0.05;;;0.00;;
10596;SDS011;5346;48.766;8.674;2023-11-19T02:37:28;0.10;;;0.03;;
10596;SDS011;5346;48.766;8.674;2023-11-19T02:39:57;1.65;;;0.03;;
10596;SDS011;5346;48.766;8.674;2023-11-19T02:42:43;2.20;;;0.22;;
10596;SDS011;5346;48.766;8.674;2023-11-19T02:45:19;0.70;;;0.10;;
10596;SDS011;5346;48.766;8.674;2023-11-19T02:47:55;0.33;;;0.10;;
10596;SDS011;5346;48.766;8.674;2023-11-19T02:50:23;0.00;;;0.00;;
10596;SDS011;5346;48.766;8.674;2023-11-19T02:52:57;1.43;;;0.10;;
10596;SDS011;5346;48.766;8.674;2023-11-19T02:55:27;0.00;;;0.00;;
10596;SDS011;5346;48.766;8.674;2023-11-19T02:58:06;0.00;;;0.00;;
10596;SDS011;5346;48.766;8.674;2023-11-19T03:00:46;1.60;;;0.00;;
10596;SDS011;5346;48.766;8.674;2023-11-19T03:03:41;0.17;;;0.10;;
10596;SDS011;5346;48.766;8.674;2023-11-19T03:06:09;0.20;;;0.15;;
10596;SDS011;5346;48.766;8.674;2023-11-19T03:08:44;0.17;;;0.08;;
10596;SDS011;5346;48.766;8.674;2023-11-19T03:11:12;0.60;;;0.00;;
10596;SDS011;5346;48.766;8.674;2023-11-19T03:13:46;0.88;;;0.08;;
10596;SDS011;5346;48.766;8.674;2023-11-19T03:16:21;1.60;;;0.10;;
10596;SDS011;5346;48.766;8.674;2023-11-19T03:18:56;0.05;;;0.00;;
10596;SDS011;5346;48.766;8.674;2023-11-19T03:21:29;0.00;;;0.00;;
10596;SDS011;5346;48.766;8.674;2023-11-19T03:23:58;0.00;;;0.00;;
10596;SDS011;5346;48.766;8.674;2023-11-19T03:26:27;0.00;;;0.00;;
10596;SDS011;5346;48.766;8.674;2023-11-19T03:29:01;0.00;;;0.00;;
10596;SDS011;5346;48.766;8.674;2023-11-19T03:31:35;1.45;;;0.03;;
10596;SDS011;5346;48.766;8.674;2023-11-19T03:34:14;0.10;;;0.00;;
10596;SDS011;5346;48.766;8.674;2023-11-19T03:36:42;0.00;;;0.00;;
10596;SDS011;5346;48.766;8.674;2023-11-19T03:39:16;0.00;;;0.00;;
10596;SDS011;5346;48.766;8.674;2023-11-19T03:41:47;0.00;;;0.00;;
10596;SDS011;5346;48.766;8.674;2023-11-19T03:44:20;0.00;;;0.00;;
10596;SDS011;5346;48.766;8.674;2023-11-19T03:46:48;0.00;;;0.00;;
10596;SDS011;5346;48.766;8.674;2023-11-19T03:49:23;0.52;;;0.10;;
10596;SDS011;5346;48.766;8.674;2023-11-19T03:51:56;0.10;;;0.10;;
10596;SDS011;5346;48.766;8.674;2023-11-19T03:54:30;0.00;;;0.00;;
10596;SDS011;5346;48.766;8.674;2023-11-19T03:57:05;0.40;;;0.10;;
10596;SDS011;5346;48.766;8.674;2023-11-19T03:59:42;0.13;;;0.13;;
10596;SDS011;5346;48.766;8.674;2023-11-19T04:02:14;0.05;;;0.05;;
10596;SDS011;5346;48.766;8.674;2023-11-19T04:04:48;2.60;;;0.10;;
10596;SDS011;5346;48.766;8.674;2023-11-19T04:07:16;0.17;;;0.17;;
10596;SDS011;5346;48.766;8.674;2023-11-19T04:09:50;1.75;;;0.20;;
10596;SDS011;5346;48.766;8.674;2023-11-19T04:12:25;2.67;;;0.20;;
10596;SDS011;5346;48.766;8.674;2023-11-19T04:14:53;0.10;;;0.10;;
10596;SDS011;5346;48.766;8.674;2023-11-19T04:17:30;0.20;;;0.20;;
10596;SDS011;5346;48.766;8.674;2023-11-19T04:20:05;0.25;;;0.25;;
10596;SDS011;5346;48.766;8.674;2023-11-19T04:22:43;0.20;;;0.20;;
10596;SDS011;5346;48.766;8.674;2023-11-19T04:25:11;2.00;;;0.30;;
10596;SDS011;5346;48.766;8.674;2023-11-19T04:27:39;0.20;;;0.20;;
10596;SDS011;5346;48.766;8.674;2023-11-19T04:30:12;0.55;;;0.20;;
10596;SDS011;5346;48.766;8.674;2023-11-19T04:32:46;0.30;;;0.30;;
10596;SDS011;5346;48.766;8.674;2023-11-19T04:35:15;0.40;;;0.28;;
10596;SDS011;5346;48.766;8.674;2023-11-19T04:37:52;0.17;;;0.17;;
10596;SDS011;5346;48.766;8.674;2023-11-19T04:40:29;0.20;;;0.20;;
10596;SDS011;5346;48.766;8.674;2023-11-19T04:43:06;0.45;;;0.30;;
10596;SDS011;5346;48.766;8.674;2023-11-19T04:45:39;0.20;;;0.20;;
10596;SDS011;5346;48.766;8.674;2023-11-19T04:48:13;0.43;;;0.38;;
10596;SDS011;5346;48.766;8.674;2023-11-19T04:50:41;0.47;;;0.40;;
10596;SDS011;5346;48.766;8.674;2023-11-19T04:53:15;0.38;;;0.38;;
10596;SDS011;5346;48.766;8.674;2023-11-19T04:55:43;0.50;;;0.50;;
10596;SDS011;5346;48.766;8.674;2023-11-19T04:58:17;0.43;;;0.43;;
10596;SDS011;5346;48.766;8.674;2023-11-19T05:00:51;0.40;;;0.40;;
10596;SDS011;5346;48.766;8.674;2023-11-19T05:03:32;0.57;;;0.57;;
10596;SDS011;5346;48.766;8.674;2023-11-19T05:06:08;1.17;;;0.60;;
10596;SDS011;5346;48.766;8.674;2023-11-19T05:08:41;0.60;;;0.60;;
10596;SDS011;5346;48.766;8.674;2023-11-19T05:11:16;1.25;;;0.55;;
10596;SDS011;5346;48.766;8.674;2023-11-19T05:13:46;0.60;;;0.50;;
10596;SDS011;5346;48.766;8.674;2023-11-19T05:16:21;0.73;;;0.73;;
10596;SDS011;5346;48.766;8.674;2023-11-19T05:18:48;3.83;;;1.05;;
10596;SDS011;5346;48.766;8.674;2023-11-19T05:21:23;1.13;;;0.63;;
10596;SDS011;5346;48.766;8.674;2023-11-19T05:23:50;2.53;;;0.85;;
10596;SDS011;5346;48.766;8.674;2023-11-19T05:26:24;3.75;;;0.90;;
10596;SDS011;5346;48.766;8.674;2023-11-19T05:28:54;2.35;;;1.05;;
10596;SDS011;5346;48.766;8.674;2023-11-19T05:31:28;2.13;;;0.90;;
10596;SDS011;5346;48.766;8.674;2023-11-19T05:33:58;2.97;;;1.00;;
10596;SDS011;5346;48.766;8.674;2023-11-19T05:36:33;2.10;;;0.80;;
10596;SDS011;5346;48.766;8.674;2023-11-19T05:39:06;1.30;;;0.95;;
10596;SDS011;5346;48.766;8.674;2023-11-19T05:41:41;0.80;;;0.80;;
10596;SDS011;5346;48.766;8.674;2023-11-19T05:44:16;2.55;;;1.20;;
10596;SDS011;5346;48.766;8.674;2023-11-19T05:46:45;3.25;;;0.98;;
10596;SDS011;5346;48.766;8.674;2023-11-19T05:49:19;2.30;;;1.27;;
10596;SDS011;5346;48.766;8.674;2023-11-19T05:51:53;2.53;;;1.08;;
10596;SDS011;5346;48.766;8.674;2023-11-19T05:54:22;2.97;;;0.90;;
10596;SDS011;5346;48.766;8.674;2023-11-19T05:56:57;1.10;;;0.73;;
10596;SDS011;5346;48.766;8.674;2023-11-19T05:59:31;0.75;;;0.50;;
10596;SDS011;5346;48.766;8.674;2023-11-19T06:02:05;4.03;;;0.70;;
10596;SDS011;5346;48.766;8.674;2023-11-19T06:04:54;0.30;;;0.30;;
10596;SDS011;5346;48.766;8.674;2023-11-19T06:07:22;1.00;;;0.55;;
10596;SDS011;5346;48.766;8.674;2023-11-19T06:09:55;2.35;;;0.47;;
10596;SDS011;5346;48.766;8.674;2023-11-19T06:12:31;1.83;;;0.50;;
10596;SDS011;5346;48.766;8.674;2023-11-19T06:15:07;1.45;;;0.60;;
10596;SDS011;5346;48.766;8.674;2023-11-19T06:17:41;0.50;;;0.50;;
10596;SDS011;5346;48.766;8.674;2023-11-19T06:20:16;1.98;;;0.55;;
10596;SDS011;5346;48.766;8.674;2023-11-19T06:22:46;0.50;;;0.50;;
10596;SDS011;5346;48.766;8.674;2023-11-19T06:25:19;1.05;;;0.50;;
10596;SDS011;5346;48.766;8.674;2023-11-19T06:27:47;0.90;;;0.75;;
10596;SDS011;5346;48.766;8.674;2023-11-19T06:30:21;0.85;;;0.45;;
10596;SDS011;5346;48.766;8.674;2023-11-19T06:32:50;0.70;;;0.50;;
10596;SDS011;5346;48.766;8.674;2023-11-19T06:35:17;2.15;;;0.70;;
10596;SDS011;5346;48.766;8.674;2023-11-19T06:37:54;0.50;;;0.50;;
10596;SDS011;5346;48.766;8.674;2023-11-19T06:40:24;1.25;;;0.90;;
10596;SDS011;5346;48.766;8.674;2023-11-19T06:42:58;0.40;;;0.40;;
10596;SDS011;5346;48.766;8.674;2023-11-19T06:45:26;2.28;;;0.60;;
10596;SDS011;5346;48.766;8.674;2023-11-19T06:48:01;1.33;;;0.77;;
10596;SDS011;5346;48.766;8.674;2023-11-19T06:50:32;3.35;;;0.68;;
10596;SDS011;5346;48.766;8.674;2023-11-19T06:53:11;0.88;;;0.50;;
10596;SDS011;5346;48.766;8.674;2023-11-19T06:55:44;1.75;;;0.68;;
10596;SDS011;5346;48.766;8.674;2023-11-19T06:58:19;4.05;;;0.77;;
10596;SDS011;5346;48.766;8.674;2023-11-19T07:00:46;1.05;;;0.63;;
10596;SDS011;5346;48.766;8.674;2023-11-19T07:03:23;1.65;;;0.68;;
10596;SDS011;5346;48.766;8.674;2023-11-19T07:05:57;2.55;;;0.52;;
10596;SDS011;5346;48.766;8.674;2023-11-19T07:08:32;2.78;;;0.75;;
10596;SDS011;5346;48.766;8.674;2023-11-19T07:11:00;2.25;;;0.70;;
10596;SDS011;5346;48.766;8.674;2023-11-19T07:13:34;2.00;;;0.82;;
10596;SDS011;5346;48.766;8.674;2023-11-19T07:16:09;2.45;;;0.60;;
10596;SDS011;5346;48.766;8.674;2023-11-19T07:18:44;1.70;;;0.70;;
10596;SDS011;5346;48.766;8.674;2023-11-19T07:21:19;0.52;;;0.52;;
10596;SDS011;5346;48.766;8.674;2023-11-19T07:23:46;1.42;;;0.40;;
10596;SDS011;5346;48.766;8.674;2023-11-19T07:26:24;0.98;;;0.65;;
10596;SDS011;5346;48.766;8.674;2023-11-19T07:28:52;2.22;;;0.65;;
10596;SDS011;5346;48.766;8.674;2023-11-19T07:31:34;1.85;;;0.70;;
10596;SDS011;5346;48.766;8.674;2023-11-19T07:34:03;2.80;;;0.80;;
10596;SDS011;5346;48.766;8.674;2023-11-19T07:36:42;0.50;;;0.40;;
10596;SDS011;5346;48.766;8.674;2023-11-19T07:39:12;2.35;;;0.40;;
10596;SDS011;5346;48.766;8.674;2023-11-19T07:41:48;0.80;;;0.52;;
10596;SDS011;5346;48.766;8.674;2023-11-19T07:44:16;0.77;;;0.40;;
10596;SDS011;5346;48.766;8.674;2023-11-19T07:46:53;1.85;;;0.63;;
10596;SDS011;5346;48.766;8.674;2023-11-19T07:49:23;2.50;;;0.60;;
10596;SDS011;5346;48.766;8.674;2023-11-19T07:51:58;1.92;;;0.60;;
10596;SDS011;5346;48.766;8.674;2023-11-19T07:54:47;0.63;;;0.50;;
10596;SDS011;5346;48.766;8.674;2023-11-19T07:57:23;1.40;;;0.50;;
10596;SDS011;5346;48.766;8.674;2023-11-19T07:59:58;0.98;;;0.40;;
10596;SDS011;5346;48.766;8.674;2023-11-19T08:02:28;1.08;;;0.63;;
10596;SDS011;5346;48.766;8.674;2023-11-19T08:05:03;1.70;;;0.57;;
10596;SDS011;5346;48.766;8.674;2023-11-19T08:07:32;2.88;;;0.68;;
10596;SDS011;5346;48.766;8.674;2023-11-19T08:10:13;1.58;;;0.60;;
10596;SDS011;5346;48.766;8.674;2023-11-19T08:12:46;0.65;;;0.65;;
10596;SDS011;5346;48.766;8.674;2023-11-19T08:15:23;1.15;;;0.60;;
10596;SDS011;5346;48.766;8.674;2023-11-19T08:17:54;1.40;;;0.68;;
10596;SDS011;5346;48.766;8.674;2023-11-19T08:20:28;1.73;;;0.60;;
10596;SDS011;5346;48.766;8.674;2023-11-19T08:22:57;0.73;;;0.70;;
10596;SDS011;5346;48.766;8.674;2023-11-19T08:25:32;1.90;;;0.80;;
10596;SDS011;5346;48.766;8.674;2023-11-19T08:28:09;1.85;;;0.80;;
10596;SDS011;5346;48.766;8.674;2023-11-19T08:30:40;1.23;;;0.70;;
10596;SDS011;5346;48.766;8.674;2023-11-19T08:33:19;2.25;;;0.60;;
10596;SDS011;5346;48.766;8.674;2023-11-19T08:35:49;4.38;;;0.60;;
10596;SDS011;5346;48.766;8.674;2023-11-19T08:38:25;2.55;;;0.70;;
10596;SDS011;5346;48.766;8.674;2023-11-19T08:40:56;0.90;;;0.60;;
10596;SDS011;5346;48.766;8.674;2023-11-19T08:43:33;3.78;;;0.68;;
10596;SDS011;5346;48.766;8.674;2023-11-19T08:46:11;0.50;;;0.50;;
10596;SDS011;5346;48.766;8.674;2023-11-19T08:48:46;0.85;;;0.55;;
10596;SDS011;5346;48.766;8.674;2023-11-19T08:51:22;0.65;;;0.30;;
10596;SDS011;5346;48.766;8.674;2023-11-19T08:53:51;1.80;;;0.60;;
10596;SDS011;5346;48.766;8.674;2023-11-19T08:56:26;2.92;;;0.57;;
10596;SDS011;5346;48.766;8.674;2023-11-19T08:59:05;0.80;;;0.50;;
10596;SDS011;5346;48.766;8.674;2023-11-19T09:01:42;0.93;;;0.43;;
10596;SDS011;5346;48.766;8.674;2023-11-19T09:04:18;1.40;;;0.65;;
10596;SDS011;5346;48.766;8.674;2023-11-19T09:06:53;1.08;;;0.60;;
10596;SDS011;5346;48.766;8.674;2023-11-19T09:09:29;0.63;;;0.50;;
10596;SDS011;5346;48.766;8.674;2023-11-19T09:11:57;1.15;;;0.60;;
10596;SDS011;5346;48.766;8.674;2023-11-19T09:14:31;1.15;;;0.70;;
10596;SDS011;5346;48.766;8.674;2023-11-19T09:16:59;1.70;;;0.40;;
10596;SDS011;5346;48.766;8.674;2023-11-19T09:19:33;1.08;;;0.68;;
10596;SDS011;5346;48.766;8.674;2023-11-19T09:22:02;1.45;;;0.65;;
10596;SDS011;5346;48.766;8.674;2023-11-19T09:24:37;1.38;;;0.60;;
10596;SDS011;5346;48.766;8.674;2023-11-19T09:27:05;1.75;;;0.70;;
10596;SDS011;5346;48.766;8.674;2023-11-19T09:29:40;0.88;;;0.43;;
10596;SDS011;5346;48.766;8.674;2023-11-19T09:32:08;2.20;;;0.70;;
10596;SDS011;5346;48.766;8.674;2023-11-19T09:34:42;0.50;;;0.32;;
10596;SDS011;5346;48.766;8.674;2023-11-19T09:37:09;1.17;;;0.73;;
10596;SDS011;5346;48.766;8.674;2023-11-19T09:39:51;1.50;;;0.45;;
10596;SDS011;5346;48.766;8.674;2023-11-19T09:42:24;0.82;;;0.68;;
10596;SDS011;5346;48.766;8.674;2023-11-19T09:45:00;1.75;;;0.75;;
10596;SDS011;5346;48.766;8.674;2023-11-19T09:47:30;1.27;;;0.50;;
10596;SDS011;5346;48.766;8.674;2023-11-19T09:50:05;1.55;;;0.55;;
10596;SDS011;5346;48.766;8.674;2023-11-19T09:52:43;1.27;;;0.50;;
10596;SDS011;5346;48.766;8.674;2023-11-19T09:55:19;1.23;;;0.60;;
10596;SDS011;5346;48.766;8.674;2023-11-19T09:57:54;1.38;;;0.75;;
10596;SDS011;5346;48.766;8.674;2023-11-19T10:00:22;1.00;;;0.50;;
10596;SDS011;5346;48.766;8.674;2023-11-19T10:03:06;1.55;;;0.57;;
10596;SDS011;5346;48.766;8.674;2023-11-19T10:05:42;3.08;;;0.80;;
10596;SDS011;5346;48.766;8.674;2023-11-19T10:08:17;1.00;;;0.40;;
10596;SDS011;5346;48.766;8.674;2023-11-19T10:10:45;0.50;;;0.38;;
10596;SDS011;5346;48.766;8.674;2023-11-19T10:13:22;1.15;;;0.47;;
10596;SDS011;5346;48.766;8.674;2023-11-19T10:16:03;0.73;;;0.60;;
10596;SDS011;5346;48.766;8.674;2023-11-19T10:18:47;1.13;;;0.57;;
10596;SDS011;5346;48.766;8.674;2023-11-19T10:21:26;0.50;;;0.25;;
10596;SDS011;5346;48.766;8.674;2023-11-19T10:24:01;0.65;;;0.55;;
10596;SDS011;5346;48.766;8.674;2023-11-19T10:26:35;0.82;;;0.38;;
10596;SDS011;5346;48.766;8.674;2023-11-19T10:29:04;2.20;;;0.80;;
10596;SDS011;5346;48.766;8.674;2023-11-19T10:31:38;0.98;;;0.60;;
10596;SDS011;5346;48.766;8.674;2023-11-19T10:34:10;1.55;;;0.70;;
10596;SDS011;5346;48.766;8.674;2023-11-19T10:36:59;2.92;;;0.73;;
10596;SDS011;5346;48.766;8.674;2023-11-19T10:39:54;0.57;;;0.55;;
10596;SDS011;5346;48.766;8.674;2023-11-19T10:42:31;1.73;;;0.70;;
10596;SDS011;5346;48.766;8.674;2023-11-19T10:45:23;0.85;;;0.60;;
10596;SDS011;5346;48.766;8.674;2023-11-19T10:48:00;2.67;;;0.70;;
10596;SDS011;5346;48.766;8.674;2023-11-19T10:50:34;2.88;;;0.82;;
10596;SDS011;5346;48.766;8.674;2023-11-19T10:53:11;1.63;;;0.70;;
10596;SDS011;5346;48.766;8.674;2023-11-19T10:55:47;0.47;;;0.47;;
10596;SDS011;5346;48.766;8.674;2023-11-19T10:58:22;4.38;;;0.88;;
10596;SDS011;5346;48.766;8.674;2023-11-19T11:00:52;1.27;;;0.90;;
10596;SDS011;5346;48.766;8.674;2023-11-19T11:03:40;2.33;;;0.90;;
10596;SDS011;5346;48.766;8.674;2023-11-19T11:06:09;1.65;;;0.80;;
10596;SDS011;5346;48.766;8.674;2023-11-19T11:08:46;2.00;;;0.60;;
10596;SDS011;5346;48.766;8.674;2023-11-19T11:11:17;4.80;;;0.90;;
10596;SDS011;5346;48.766;8.674;2023-11-19T11:13:57;1.52;;;0.88;;
10596;SDS011;5346;48.766;8.674;2023-11-19T11:16:29;1.50;;;0.65;;
10596;SDS011;5346;48.766;8.674;2023-11-19T11:19:05;4.07;;;0.80;;
10596;SDS011;5346;48.766;8.674;2023-11-19T11:21:34;0.65;;;0.63;;
10596;SDS011;5346;48.766;8.674;2023-11-19T11:33:06;1.75;;;0.70;;
10596;SDS011;5346;48.766;8.674;2023-11-19T11:38:48;2.15;;;0.60;;
10596;SDS011;5346;48.766;8.674;2023-11-19T11:41:20;1.50;;;0.68;;
10596;SDS011;5346;48.766;8.674;2023-11-19T11:43:56;1.40;;;0.63;;
10596;SDS011;5346;48.766;8.674;2023-11-19T11:49:08;2.45;;;0.88;;
10596;SDS011;5346;48.766;8.674;2023-11-19T12:02:27;1.33;;;0.80;;
10596;SDS011;5346;48.766;8.674;2023-11-19T12:05:09;2.45;;;0.88;;
10596;SDS011;5346;48.766;8.674;2023-11-19T12:07:54;1.40;;;0.68;;
10596;SDS011;5346;48.766;8.674;2023-11-19T12:10:32;0.90;;;0.50;;
10596;SDS011;5346;48.766;8.674;2023-11-19T12:13:10;1.45;;;0.73;;
10596;SDS011;5346;48.766;8.674;2023-11-19T12:16:14;4.60;;;0.80;;
10596;SDS011;5346;48.766;8.674;2023-11-19T12:18:42;0.52;;;0.28;;
10596;SDS011;5346;48.766;8.674;2023-11-19T12:21:10;1.33;;;0.63;;
10596;SDS011;5346;48.766;8.674;2023-11-19T12:23:45;1.23;;;0.65;;
10596;SDS011;5346;48.766;8.674;2023-11-19T12:26:34;2.15;;;0.85;;
10596;SDS011;5346;48.766;8.674;2023-11-19T12:29:07;1.77;;;0.88;;
10596;SDS011;5346;48.766;8.674;2023-11-19T12:31:44;2.65;;;1.00;;
10596;SDS011;5346;48.766;8.674;2023-11-19T12:34:20;2.58;;;0.95;;
10596;SDS011;5346;48.766;8.674;2023-11-19T12:36:56;2.28;;;0.82;;
10596;SDS011;5346;48.766;8.674;2023-11-19T12:39:24;2.15;;;0.63;;
10596;SDS011;5346;48.766;8.674;2023-11-19T12:41:59;0.90;;;0.57;;
10596;SDS011;5346;48.766;8.674;2023-11-19T12:44:30;3.40;;;0.98;;
10596;SDS011;5346;48.766;8.674;2023-11-19T12:47:08;1.30;;;0.68;;
10596;SDS011;5346;48.766;8.674;2023-11-19T12:50:02;3.55;;;1.08;;
10596;SDS011;5346;48.766;8.674;2023-11-19T12:52:32;0.57;;;0.50;;
10596;SDS011;5346;48.766;8.674;2023-11-19T12:57:57;2.15;;;0.77;;
10596;SDS011;5346;48.766;8.674;2023-11-19T13:00:32;1.17;;;0.82;;
10596;SDS011;5346;48.766;8.674;2023-11-19T13:03:12;2.00;;;0.65;;
10596;SDS011;5346;48.766;8.674;2023-11-19T13:06:09;2.58;;;0.70;;
10596;SDS011;5346;48.766;8.674;2023-11-19T13:08:49;1.23;;;0.63;;
10596;SDS011;5346;48.766;8.674;2023-11-19T13:11:34;0.63;;;0.55;;
10596;SDS011;5346;48.766;8.674;2023-11-19T13:14:14;1.10;;;0.60;;
10596;SDS011;5346;48.766;8.674;2023-11-19T13:16:42;1.27;;;0.77;;
10596;SDS011;5346;48.766;8.674;2023-11-19T13:19:18;2.13;;;0.90;;
10596;SDS011;5346;48.766;8.674;2023-11-19T13:21:49;1.85;;;0.70;;
10596;SDS011;5346;48.766;8.674;2023-11-19T13:24:29;1.88;;;0.60;;
10596;SDS011;5346;48.766;8.674;2023-11-19T13:26:57;3.65;;;0.90;;
10596;SDS011;5346;48.766;8.674;2023-11-19T13:29:25;4.65;;;1.60;;
10596;SDS011;5346;48.766;8.674;2023-11-19T13:32:02;1.88;;;0.88;;
10596;SDS011;5346;48.766;8.674;2023-11-19T13:34:32;2.65;;;0.65;;
10596;SDS011;5346;48.766;8.674;2023-11-19T13:37:10;1.52;;;0.80;;
10596;SDS011;5346;48.766;8.674;2023-11-19T13:39:49;1.45;;;0.60;;
10596;SDS011;5346;48.766;8.674;2023-11-19T13:42:27;1.70;;;0.60;;
10596;SDS011;5346;48.766;8.674;2023-11-19T13:44:55;2.33;;;0.80;;
10596;SDS011;5346;48.766;8.674;2023-11-19T13:47:30;3.20;;;0.82;;
10596;SDS011;5346;48.766;8.674;2023-11-19T13:50:08;1.70;;;0.70;;
10596;SDS011;5346;48.766;8.674;2023-11-19T13:52:46;2.22;;;0.65;;
10596;SDS011;5346;48.766;8.674;2023-11-19T13:55:21;2.78;;;1.95;;
10596;SDS011;5346;48.766;8.674;2023-11-19T13:58:02;4.43;;;1.42;;
10596;SDS011;5346;48.766;8.674;2023-11-19T14:00:38;1.50;;;0.75;;
10596;SDS011;5346;48.766;8.674;2023-11-19T14:03:10;1.10;;;0.80;;
10596;SDS011;5346;48.766;8.674;2023-11-19T14:05:52;7.13;;;3.92;;
10596;SDS011;5346;48.766;8.674;2023-11-19T14:08:28;2.17;;;1.33;;
10596;SDS011;5346;48.766;8.674;2023-11-19T14:11:02;4.43;;;3.15;;
10596;SDS011;5346;48.766;8.674;2023-11-19T14:13:38;7.00;;;3.92;;
10596;SDS011;5346;48.766;8.674;2023-11-19T14:16:12;2.30;;;1.30;;
10596;SDS011;5346;48.766;8.674;2023-11-19T14:18:46;3.60;;;2.17;;
10596;SDS011;5346;48.766;8.674;2023-11-19T14:21:15;1.52;;;0.60;;
10596;SDS011;5346;48.766;8.674;2023-11-19T14:23:53;1.55;;;0.82;;
10596;SDS011;5346;48.766;8.674;2023-11-19T14:26:22;8.00;;;3.53;;
10596;SDS011;5346;48.766;8.674;2023-11-19T14:28:56;4.63;;;1.42;;
10596;SDS011;5346;48.766;8.674;2023-11-19T14:31:27;2.80;;;1.33;;
10596;SDS011;5346;48.766;8.674;2023-11-19T14:34:02;2.63;;;0.90;;
10596;SDS011;5346;48.766;8.674;2023-11-19T14:36:29;4.55;;;0.85;;
10596;SDS011;5346;48.766;8.674;2023-11-19T14:39:04;2.08;;;0.77;;
10596;SDS011;5346;48.766;8.674;2023-11-19T14:41:33;3.33;;;1.55;;
10596;SDS011;5346;48.766;8.674;2023-11-19T14:44:08;2.22;;;0.68;;
10596;SDS011;5346;48.766;8.674;2023-11-19T14:46:36;3.22;;;0.80;;
10596;SDS011;5346;48.766;8.674;2023-11-19T14:49:11;1.27;;;0.70;;
10596;SDS011;5346;48.766;8.674;2023-11-19T14:51:40;1.60;;;0.80;;
10596;SDS011;5346;48.766;8.674;2023-11-19T14:54:15;3.97;;;1.55;;
10596;SDS011;5346;48.766;8.674;2023-11-19T14:56:43;2.78;;;0.95;;
10596;SDS011;5346;48.766;8.674;2023-11-19T14:59:17;1.38;;;0.90;;
10596;SDS011;5346;48.766;8.674;2023-11-19T15:01:51;3.10;;;1.13;;
10596;SDS011;5346;48.766;8.674;2023-11-19T15:04:31;2.92;;;1.35;;
10596;SDS011;5346;48.766;8.674;2023-11-19T15:07:06;2.13;;;1.17;;
10596;SDS011;5346;48.766;8.674;2023-11-19T15:09:34;2.85;;;0.80;;
10596;SDS011;5346;48.766;8.674;2023-11-19T15:12:09;4.93;;;2.10;;
10596;SDS011;5346;48.766;8.674;2023-11-19T15:14:44;1.52;;;1.08;;
10596;SDS011;5346;48.766;8.674;2023-11-19T15:17:19;2.72;;;0.60;;
10596;SDS011;5346;48.766;8.674;2023-11-19T15:19:50;5.45;;;0.95;;
10596;SDS011;5346;48.766;8.674;2023-11-19T15:22:24;4.13;;;1.05;;
10596;SDS011;5346;48.766;8.674;2023-11-19T15:24:53;1.25;;;0.77;;
10596;SDS011;5346;48.766;8.674;2023-11-19T15:27:28;1.52;;;0.80;;
10596;SDS011;5346;48.766;8.674;2023-11-19T15:29:56;5.25;;;2.42;;
10596;SDS011;5346;48.766;8.674;2023-11-19T15:32:31;14.95;;;6.22;;
10596;SDS011;5346;48.766;8.674;2023-11-19T15:35:06;3.85;;;3.00;;
10596;SDS011;5346;48.766;8.674;2023-11-19T15:37:41;2.80;;;1.40;;
10596;SDS011;5346;48.766;8.674;2023-11-19T15:40:17;1.20;;;0.90;;
10596;SDS011;5346;48.766;8.674;2023-11-19T15:42:51;0.90;;;0.63;;
10596;SDS011;5346;48.766;8.674;2023-11-19T15:45:21;1.42;;;0.60;;
10596;SDS011;5346;48.766;8.674;2023-11-19T15:47:56;0.73;;;0.73;;
10596;SDS011;5346;48.766;8.674;2023-11-19T15:50:30;1.40;;;0.63;;
10596;SDS011;5346;48.766;8.674;2023-11-19T15:53:06;4.85;;;1.10;;
10596;SDS011;5346;48.766;8.674;2023-11-19T15:55:41;3.05;;;0.77;;
10596;SDS011;5346;48.766;8.674;2023-11-19T15:58:16;2.00;;;0.75;;
10596;SDS011;5346;48.766;8.674;2023-11-19T16:00:44;0.70;;;0.57;;
10596;SDS011;5346;48.766;8.674;2023-11-19T16:03:22;2.63;;;1.15;;
10596;SDS011;5346;48.766;8.674;2023-11-19T16:06:23;1.63;;;1.23;;
10596;SDS011;5346;48.766;8.674;2023-11-19T16:08:59;1.48;;;0.80;;
10596;SDS011;5346;48.766;8.674;2023-11-19T16:11:26;1.10;;;0.80;;